Time,TemperatureF,DewpointF,PressureIn,WindDirection,WindDirectionDegrees,WindSpeedMPH,WindSpeedGustMPH,Humidity,HourlyPrecipIn,Conditions,Clouds,dailyrainin,SoftwareType,DateUTC
2013-06-02 00:05:00,71.4,67.7,29.88,East,91,0.0,0.0,88,0.00,,,0.00,Wunderground v.1.15,2013-06-02 04:05:00,
2013-06-02 00:10:00,71.5,67.8,29.87,ESE,109,0.0,0.0,88,0.00,,,0.00,Wunderground v.1.15,2013-06-02 04:10:00,
2013-06-02 00:15:00,71.5,67.4,29.87,ESE,109,0.0,0.0,87,0.00,,,0.00,Wunderground v.1.15,2013-06-02 04:15:00,
2013-06-02 00:20:00,71.5,67.4,29.86,ESE,115,0.0,0.0,87,0.00,,,0.00,Wunderground v.1.15,2013-06-02 04:20:00,
2013-06-02 00:25:00,71.4,67.3,29.86,ESE,115,0.0,0.0,87,0.00,,,0.00,Wunderground v.1.15,2013-06-02 04:25:00,
2013-06-02 00:35:00,71.1,67.4,29.86,WSW,255,0.0,0.0,88,0.00,,,0.00,Wunderground v.1.15,2013-06-02 04:35:00,
2013-06-02 00:40:00,71.0,67.3,29.86,ESE,118,0.0,0.0,88,0.00,,,0.00,Wunderground v.1.15,2013-06-02 04:40:00,
2013-06-02 00:45:00,70.9,67.2,29.86,ESE,115,0.0,0.0,88,0.00,,,0.00,Wunderground v.1.15,2013-06-02 04:45:00,
2013-06-02 00:50:00,70.7,67.3,29.86,WNW,293,0.0,1.0,89,0.00,,,0.00,Wunderground v.1.15,2013-06-02 04:50:00,
2013-06-02 01:05:00,70.4,67.0,29.86,East,81,0.0,0.0,89,0.00,,,0.00,Wunderground v.1.15,2013-06-02 05:05:00,
2013-06-02 01:10:00,70.3,66.9,29.86,East,81,0.0,0.0,89,0.00,,,0.00,Wunderground v.1.15,2013-06-02 05:10:00,
2013-06-02 01:20:00,70.0,66.9,29.85,East,81,0.0,0.0,90,0.00,,,0.00,Wunderground v.1.15,2013-06-02 05:20:00,
2013-06-02 01:25:00,69.7,66.6,29.85,East,81,0.0,0.0,90,0.00,,,0.00,Wunderground v.1.15,2013-06-02 05:25:00,
2013-06-02 01:30:00,69.6,66.5,29.84,East,81,0.0,0.0,90,0.00,,,0.00,Wunderground v.1.15,2013-06-02 05:30:00,
2013-06-02 01:40:00,69.4,66.7,29.84,East,81,0.0,0.0,91,0.00,,,0.00,Wunderground v.1.15,2013-06-02 05:40:00,
2013-06-02 01:45:00,69.3,66.6,29.84,ESE,110,0.0,0.0,91,0.00,,,0.00,Wunderground v.1.15,2013-06-02 05:45:00,
2013-06-02 01:50:00,69.3,66.6,29.83,ESE,110,0.0,0.0,91,0.00,,,0.00,Wunderground v.1.15,2013-06-02 05:50:00,
2013-06-02 02:05:00,69.1,66.4,29.82,SE,124,0.0,0.0,91,0.00,,,0.00,Wunderground v.1.15,2013-06-02 06:05:00,
2013-06-02 02:10:00,69.0,66.6,29.82,ESE,103,0.0,1.0,92,0.00,,,0.00,Wunderground v.1.15,2013-06-02 06:10:00,
2013-06-02 02:20:00,69.1,66.4,29.82,ESE,116,0.0,0.0,91,0.00,,,0.00,Wunderground v.1.15,2013-06-02 06:20:00,
2013-06-02 02:25:00,69.1,66.4,29.82,ESE,117,0.0,0.0,91,0.00,,,0.00,Wunderground v.1.15,2013-06-02 06:25:00,
2013-06-02 02:30:00,69.1,66.4,29.82,ESE,115,0.0,0.0,91,0.00,,,0.00,Wunderground v.1.15,2013-06-02 06:30:00,
2013-06-02 02:40:00,69.3,66.6,29.81,ESE,120,0.0,0.0,91,0.00,,,0.00,Wunderground v.1.15,2013-06-02 06:40:00,
2013-06-02 02:45:00,69.4,66.7,29.81,ESE,120,0.0,0.0,91,0.00,,,0.00,Wunderground v.1.15,2013-06-02 06:45:00,
2013-06-02 02:50:00,69.4,66.7,29.81,ESE,102,0.0,0.0,91,0.00,,,0.00,Wunderground v.1.15,2013-06-02 06:50:00,
2013-06-02 03:05:00,69.4,66.3,29.81,ESE,118,0.0,0.0,90,0.00,,,0.00,Wunderground v.1.15,2013-06-02 07:05:00,
2013-06-02 03:15:00,69.5,66.4,29.80,ESE,118,0.0,0.0,90,0.00,,,0.00,Wunderground v.1.15,2013-06-02 07:15:00,
2013-06-02 03:20:00,69.5,66.4,29.80,ESE,118,0.0,0.0,90,0.00,,,0.00,Wunderground v.1.15,2013-06-02 07:20:00,
2013-06-02 03:25:00,69.4,66.3,29.80,ESE,117,0.0,0.0,90,0.00,,,0.00,Wunderground v.1.15,2013-06-02 07:25:00,
2013-06-02 03:35:00,69.2,66.1,29.79,ESE,117,0.0,0.0,90,0.00,,,0.00,Wunderground v.1.15,2013-06-02 07:35:00,
2013-06-02 03:40:00,69.0,66.3,29.79,ESE,118,0.0,0.0,91,0.00,,,0.00,Wunderground v.1.15,2013-06-02 07:40:00,
2013-06-02 03:50:00,68.8,66.1,29.78,ESE,122,0.0,0.0,91,0.00,,,0.00,Wunderground v.1.15,2013-06-02 07:50:00,
2013-06-02 03:55:00,68.7,66.3,29.78,ESE,122,0.0,0.0,92,0.00,,,0.00,Wunderground v.1.15,2013-06-02 07:55:00,
2013-06-02 04:05:00,68.5,66.1,29.77,ESE,122,0.0,0.0,92,0.00,,,0.00,Wunderground v.1.15,2013-06-02 08:05:00,
2013-06-02 04:15:00,68.2,65.8,29.77,ESE,122,0.0,0.0,92,0.00,,,0.00,Wunderground v.1.15,2013-06-02 08:15:00,
2013-06-02 04:20:00,68.2,66.1,29.77,ESE,122,0.0,0.0,93,0.00,,,0.00,Wunderground v.1.15,2013-06-02 08:20:00,
2013-06-02 04:25:00,68.1,66.0,29.77,ESE,122,0.0,0.0,93,0.00,,,0.00,Wunderground v.1.15,2013-06-02 08:25:00,
2013-06-02 04:30:00,68.0,65.9,29.77,ESE,122,0.0,0.0,93,0.00,,,0.00,Wunderground v.1.15,2013-06-02 08:30:00,
2013-06-02 04:40:00,67.9,65.8,29.77,ESE,122,0.0,0.0,93,0.00,,,0.00,Wunderground v.1.15,2013-06-02 08:40:00,
2013-06-02 04:45:00,67.9,65.8,29.77,ESE,122,0.0,0.0,93,0.00,,,0.00,Wunderground v.1.15,2013-06-02 08:45:00,
2013-06-02 04:50:00,67.8,65.7,29.76,ESE,122,0.0,0.0,93,0.00,,,0.00,Wunderground v.1.15,2013-06-02 08:50:00,
2013-06-02 05:05:00,70.6,66.5,29.77,WNW,297,1.0,1.0,87,0.00,,,0.00,Wunderground v.1.15,2013-06-02 09:05:00,
2013-06-02 05:10:00,71.7,66.3,29.77,WSW,242,1.0,2.0,83,0.00,,,0.00,Wunderground v.1.15,2013-06-02 09:10:00,
2013-06-02 05:15:00,72.6,66.8,29.77,SSW,210,2.0,2.0,82,0.00,,,0.00,Wunderground v.1.15,2013-06-02 09:15:00,
2013-06-02 05:20:00,73.2,66.7,29.77,SW,221,2.0,2.0,80,0.00,,,0.00,Wunderground v.1.15,2013-06-02 09:20:00,
2013-06-02 05:30:00,74.0,67.1,29.78,WNW,287,3.0,4.0,79,0.00,,,0.00,Wunderground v.1.15,2013-06-02 09:30:00,
2013-06-02 05:35:00,73.8,66.9,29.78,WSW,245,4.0,6.0,79,0.00,,,0.00,Wunderground v.1.15,2013-06-02 09:35:00,
2013-06-02 05:40:00,73.7,66.8,29.78,WSW,253,3.0,6.0,79,0.00,,,0.00,Wunderground v.1.15,2013-06-02 09:40:00,
2013-06-02 05:50:00,73.4,66.5,29.83,WNW,287,3.0,3.0,79,0.00,,,0.00,Wunderground v.1.15,2013-06-02 09:50:00,
2013-06-02 05:55:00,71.6,65.1,29.83,West,278,5.0,5.0,80,0.00,,,0.00,Wunderground v.1.15,2013-06-02 09:55:00,
2013-06-02 06:05:00,70.3,65.2,29.84,West,278,3.0,3.0,84,0.26,,,0.02,Wunderground v.1.15,2013-06-02 10:05:00,
2013-06-02 06:10:00,69.9,64.8,29.83,WNW,297,3.0,3.0,84,0.08,,,0.02,Wunderground v.1.15,2013-06-02 10:10:00,
2013-06-02 06:15:00,69.6,64.9,29.83,WSW,253,2.0,4.0,85,0.05,,,0.02,Wunderground v.1.15,2013-06-02 10:15:00,
2013-06-02 06:20:00,69.3,64.9,29.83,West,268,2.0,4.0,86,0.00,,,0.02,Wunderground v.1.15,2013-06-02 10:20:00,
2013-06-02 06:25:00,69.3,64.9,29.82,WNW,301,2.0,2.0,86,0.00,,,0.02,Wunderground v.1.15,2013-06-02 10:25:00,
2013-06-02 06:35:00,69.1,65.1,29.82,WSW,248,2.0,2.0,87,0.00,,,0.02,Wunderground v.1.15,2013-06-02 10:35:00,
2013-06-02 06:40:00,69.2,65.2,29.82,WSW,255,1.0,2.0,87,0.00,,,0.02,Wunderground v.1.15,2013-06-02 10:40:00,
2013-06-02 06:50:00,69.2,65.2,29.81,West,280,1.0,1.0,87,0.00,,,0.02,Wunderground v.1.15,2013-06-02 10:50:00,
2013-06-02 06:55:00,69.4,65.4,29.81,SW,221,1.0,1.0,87,0.00,,,0.02,Wunderground v.1.15,2013-06-02 10:55:00,
2013-06-02 07:05:00,69.6,65.6,29.82,WSW,238,0.0,0.0,87,0.00,,,0.02,Wunderground v.1.15,2013-06-02 11:05:00,
2013-06-02 07:10:00,69.5,65.8,29.81,SE,131,0.0,0.0,88,0.00,,,0.02,Wunderground v.1.15,2013-06-02 11:10:00,
2013-06-02 07:15:00,69.5,65.8,29.81,SE,131,0.0,0.0,88,0.00,,,0.02,Wunderground v.1.15,2013-06-02 11:15:00,
2013-06-02 07:25:00,69.7,66.0,29.81,ENE,73,0.0,0.0,88,0.00,,,0.02,Wunderground v.1.15,2013-06-02 11:25:00,
2013-06-02 07:30:00,70.0,65.3,29.81,WNW,299,0.0,1.0,85,0.00,,,0.02,Wunderground v.1.15,2013-06-02 11:30:00,
2013-06-02 07:35:00,70.4,65.7,29.81,NW,307,1.0,1.0,85,0.00,,,0.02,Wunderground v.1.15,2013-06-02 11:35:00,
2013-06-02 07:45:00,71.0,65.9,29.81,WSW,250,0.0,1.0,84,0.00,,,0.02,Wunderground v.1.15,2013-06-02 11:45:00,
2013-06-02 07:50:00,71.1,65.7,29.81,WSW,255,0.0,1.0,83,0.00,,,0.02,Wunderground v.1.15,2013-06-02 11:50:00,
2013-06-02 08:05:00,71.5,65.7,29.80,SSW,195,0.0,0.0,82,0.00,,,0.02,Wunderground v.1.15,2013-06-02 12:05:00,
2013-06-02 08:10:00,71.5,65.4,29.80,West,269,0.0,0.0,81,0.00,,,0.02,Wunderground v.1.15,2013-06-02 12:10:00,
2013-06-02 08:15:00,71.5,66.1,29.80,ESE,120,0.0,0.0,83,0.00,,,0.02,Wunderground v.1.15,2013-06-02 12:15:00,
2013-06-02 08:20:00,71.5,66.1,29.81,West,263,0.0,1.0,83,0.00,,,0.02,Wunderground v.1.15,2013-06-02 12:20:00,
2013-06-02 08:25:00,71.4,65.6,29.81,WSW,246,0.0,0.0,82,0.00,,,0.02,Wunderground v.1.15,2013-06-02 12:25:00,
2013-06-02 08:35:00,71.6,65.1,29.81,WSW,244,1.0,1.0,80,0.00,,,0.02,Wunderground v.1.15,2013-06-02 12:35:00,
2013-06-02 08:45:00,71.9,65.0,29.81,WSW,257,1.0,1.0,79,0.00,,,0.02,Wunderground v.1.15,2013-06-02 12:45:00,
2013-06-02 08:50:00,72.0,64.8,29.81,WSW,252,1.0,1.0,78,0.00,,,0.02,Wunderground v.1.15,2013-06-02 12:50:00,
2013-06-02 08:55:00,72.0,64.8,29.81,SW,236,1.0,2.0,78,0.00,,,0.02,Wunderground v.1.15,2013-06-02 12:55:00,
2013-06-02 09:05:00,72.0,64.8,29.80,WSW,252,1.0,1.0,78,0.00,,,0.02,Wunderground v.1.15,2013-06-02 13:05:00,
2013-06-02 09:15:00,71.7,65.2,29.81,West,269,1.0,1.0,80,0.00,,,0.02,Wunderground v.1.15,2013-06-02 13:15:00,
2013-06-02 09:20:00,71.7,65.2,29.81,West,266,1.0,2.0,80,0.00,,,0.02,Wunderground v.1.15,2013-06-02 13:20:00,
2013-06-02 09:30:00,71.8,65.3,29.80,South,174,1.0,2.0,80,0.00,,,0.02,Wunderground v.1.15,2013-06-02 13:30:00,
2013-06-02 09:35:00,71.9,65.0,29.80,SSW,213,1.0,1.0,79,0.00,,,0.02,Wunderground v.1.15,2013-06-02 13:35:00,
2013-06-02 09:40:00,72.1,64.9,29.79,WSW,238,1.0,1.0,78,0.00,,,0.02,Wunderground v.1.15,2013-06-02 13:40:00,
2013-06-02 09:50:00,72.4,64.8,29.80,West,280,2.0,2.0,77,0.00,,,0.02,Wunderground v.1.15,2013-06-02 13:50:00,
2013-06-02 09:55:00,72.5,65.6,29.79,SW,232,2.0,2.0,79,0.00,,,0.02,Wunderground v.1.15,2013-06-02 13:55:00,
2013-06-02 10:05:00,72.8,65.2,29.79,WSW,248,2.0,4.0,77,0.00,,,0.02,Wunderground v.1.15,2013-06-02 14:05:00,
2013-06-02 10:10:00,73.0,65.4,29.80,SW,228,2.0,4.0,77,0.00,,,0.02,Wunderground v.1.15,2013-06-02 14:10:00,
2013-06-02 10:15:00,73.1,65.5,29.80,West,274,2.0,2.0,77,0.00,,,0.02,Wunderground v.1.15,2013-06-02 14:15:00,
2013-06-02 10:25:00,73.2,65.6,29.80,WNW,302,2.0,2.0,77,0.00,,,0.02,Wunderground v.1.15,2013-06-02 14:25:00,
2013-06-02 10:30:00,73.4,65.7,29.81,SE,132,2.0,2.0,77,0.00,,,0.02,Wunderground v.1.15,2013-06-02 14:30:00,
2013-06-02 10:35:00,73.4,65.7,29.81,WSW,248,2.0,4.0,77,0.00,,,0.02,Wunderground v.1.15,2013-06-02 14:35:00,
2013-06-02 10:45:00,73.4,65.7,29.82,SSE,165,2.0,2.0,77,0.00,,,0.02,Wunderground v.1.15,2013-06-02 14:45:00,
2013-06-02 10:50:00,73.5,66.2,29.82,West,264,2.0,2.0,78,0.00,,,0.02,Wunderground v.1.15,2013-06-02 14:50:00,
2013-06-02 10:55:00,73.6,65.9,29.82,West,262,2.0,2.0,77,0.00,,,0.02,Wunderground v.1.15,2013-06-02 14:55:00,
2013-06-02 11:05:00,74.2,66.5,29.81,SE,136,1.0,1.0,77,0.00,,,0.02,Wunderground v.1.15,2013-06-02 15:05:00,
2013-06-02 11:10:00,74.4,66.3,29.81,NW,305,1.0,1.0,76,0.00,,,0.02,Wunderground v.1.15,2013-06-02 15:10:00,
2013-06-02 11:20:00,74.9,66.1,29.81,SW,226,1.0,2.0,74,0.00,,,0.02,Wunderground v.1.15,2013-06-02 15:20:00,
2013-06-02 11:25:00,75.0,66.5,29.81,WSW,239,1.0,2.0,75,0.00,,,0.02,Wunderground v.1.15,2013-06-02 15:25:00,
2013-06-02 11:30:00,75.3,66.8,29.81,SSE,165,1.0,2.0,75,0.00,,,0.02,Wunderground v.1.15,2013-06-02 15:30:00,
2013-06-02 11:35:00,75.4,66.5,29.81,WSW,255,1.0,1.0,74,0.00,,,0.02,Wunderground v.1.15,2013-06-02 15:35:00,
2013-06-02 11:45:00,76.0,67.1,29.81,WSW,237,1.0,1.0,74,0.00,,,0.02,Wunderground v.1.15,2013-06-02 15:45:00,
2013-06-02 11:50:00,76.6,66.9,29.81,West,267,1.0,1.0,72,0.00,,,0.02,Wunderground v.1.15,2013-06-02 15:50:00,
2013-06-02 11:55:00,76.6,67.3,29.81,West,266,1.0,1.0,73,0.00,,,0.02,Wunderground v.1.15,2013-06-02 15:55:00,
2013-06-02 12:05:00,76.6,67.3,29.80,WSW,248,2.0,2.0,73,0.00,,,0.02,Wunderground v.1.15,2013-06-02 16:05:00,
2013-06-02 12:10:00,76.6,67.3,29.80,WNW,293,2.0,2.0,73,0.00,,,0.02,Wunderground v.1.15,2013-06-02 16:10:00,
2013-06-02 12:20:00,76.9,67.2,29.81,West,265,2.0,2.0,72,0.00,,,0.02,Wunderground v.1.15,2013-06-02 16:20:00,
2013-06-02 12:25:00,76.9,67.2,29.82,West,269,2.0,2.0,72,0.00,,,0.02,Wunderground v.1.15,2013-06-02 16:25:00,
2013-06-02 12:30:00,76.7,66.6,29.82,WSW,256,2.0,2.0,71,0.00,,,0.02,Wunderground v.1.15,2013-06-02 16:30:00,
2013-06-02 12:35:00,76.8,66.3,29.82,West,269,2.0,3.0,70,0.00,,,0.02,Wunderground v.1.15,2013-06-02 16:35:00,
2013-06-02 12:45:00,77.2,65.8,29.81,WSW,243,2.0,2.0,68,0.00,,,0.02,Wunderground v.1.15,2013-06-02 16:45:00,
2013-06-02 12:50:00,77.3,65.5,29.81,West,271,1.0,2.0,67,0.00,,,0.02,Wunderground v.1.15,2013-06-02 16:50:00,
2013-06-02 12:55:00,77.5,65.2,29.80,WSW,257,2.0,2.0,66,0.00,,,0.02,Wunderground v.1.15,2013-06-02 16:55:00,
2013-06-02 13:05:00,77.7,64.1,29.80,WNW,293,3.0,3.0,63,0.00,,,0.02,Wunderground v.1.15,2013-06-02 17:05:00,
2013-06-02 13:15:00,78.2,63.2,29.81,ESE,111,3.0,3.0,60,0.00,,,0.02,Wunderground v.1.15,2013-06-02 17:15:00,
2013-06-02 13:20:00,78.6,63.6,29.81,West,268,4.0,4.0,60,0.00,,,0.02,Wunderground v.1.15,2013-06-02 17:20:00,
2013-06-02 13:25:00,78.8,63.3,29.80,WNW,290,4.0,4.0,59,0.00,,,0.02,Wunderground v.1.15,2013-06-02 17:25:00,
2013-06-02 13:35:00,80.0,62.9,29.79,West,264,4.0,4.0,56,0.00,,,0.02,Wunderground v.1.15,2013-06-02 17:35:00,
2013-06-02 13:40:00,80.2,63.1,29.79,NW,319,4.0,4.0,56,0.00,,,0.02,Wunderground v.1.15,2013-06-02 17:40:00,
2013-06-02 13:45:00,80.9,62.2,29.79,West,268,4.0,4.0,53,0.00,,,0.02,Wunderground v.1.15,2013-06-02 17:45:00,
2013-06-02 13:55:00,81.4,61.5,29.79,SW,222,4.0,4.0,51,0.00,,,0.02,Wunderground v.1.15,2013-06-02 17:55:00,
2013-06-02 14:05:00,82.1,62.7,29.79,East,96,4.0,4.0,52,0.00,,,0.02,Wunderground v.1.15,2013-06-02 18:05:00,
2013-06-02 14:10:00,81.9,61.4,29.79,WNW,300,3.0,4.0,50,0.00,,,0.02,Wunderground v.1.15,2013-06-02 18:10:00,
2013-06-02 14:15:00,81.9,60.9,29.79,WSW,253,4.0,6.0,49,0.00,,,0.02,Wunderground v.1.15,2013-06-02 18:15:00,
2013-06-02 14:25:00,81.7,60.7,29.78,West,276,5.0,5.0,49,0.00,,,0.02,Wunderground v.1.15,2013-06-02 18:25:00,
2013-06-02 14:30:00,81.4,61.0,29.78,SW,217,4.0,5.0,50,0.00,,,0.02,Wunderground v.1.15,2013-06-02 18:30:00,
2013-06-02 14:35:00,81.5,61.6,29.78,SSW,208,4.0,4.0,51,0.00,,,0.02,Wunderground v.1.15,2013-06-02 18:35:00,
2013-06-02 14:40:00,82.6,60.3,29.78,WNW,290,4.0,4.0,47,0.00,,,0.02,Wunderground v.1.15,2013-06-02 18:40:00,
2013-06-02 14:50:00,81.8,60.2,29.78,WSW,239,4.0,6.0,48,0.00,,,0.02,Wunderground v.1.15,2013-06-02 18:50:00,
2013-06-02 14:55:00,81.5,60.5,29.78,WNW,295,4.0,4.0,49,0.00,,,0.02,Wunderground v.1.15,2013-06-02 18:55:00,
2013-06-02 15:05:00,82.2,62.8,29.78,WNW,288,3.0,3.0,52,0.00,,,0.02,Wunderground v.1.15,2013-06-02 19:05:00,
2013-06-02 15:10:00,82.0,63.2,29.78,NW,325,2.0,3.0,53,0.00,,,0.02,Wunderground v.1.15,2013-06-02 19:10:00,
2013-06-02 15:15:00,81.3,65.1,29.79,NW,323,2.0,2.0,58,0.00,,,0.02,Wunderground v.1.15,2013-06-02 19:15:00,
2013-06-02 15:25:00,79.0,64.4,29.79,NW,320,2.0,3.0,61,0.00,,,0.02,Wunderground v.1.15,2013-06-02 19:25:00,
2013-06-02 15:30:00,78.2,64.1,29.80,WNW,293,2.0,3.0,62,0.00,,,0.02,Wunderground v.1.15,2013-06-02 19:30:00,
2013-06-02 15:35:00,77.7,63.2,29.79,WNW,303,2.0,2.0,61,0.00,,,0.02,Wunderground v.1.15,2013-06-02 19:35:00,
2013-06-02 15:45:00,77.1,63.5,29.80,WNW,293,2.0,2.0,63,0.00,,,0.02,Wunderground v.1.15,2013-06-02 19:45:00,
2013-06-02 15:50:00,76.9,64.7,29.80,WSW,240,2.0,2.0,66,0.00,,,0.02,Wunderground v.1.15,2013-06-02 19:50:00,
2013-06-02 15:55:00,77.0,64.3,29.79,WNW,294,1.0,1.0,65,0.00,,,0.02,Wunderground v.1.15,2013-06-02 19:55:00,
2013-06-02 16:05:00,78.3,66.0,29.79,WSW,250,1.0,1.0,66,0.00,,,0.02,Wunderground v.1.15,2013-06-02 20:05:00,
2013-06-02 16:10:00,79.2,65.1,29.79,NW,308,1.0,3.0,62,0.00,,,0.02,Wunderground v.1.15,2013-06-02 20:10:00,
2013-06-02 16:19:00,78.8,63.3,29.79,West,281,2.0,4.0,59,0.00,,,0.02,Wunderground v.1.15,2013-06-02 20:19:00,
2013-06-02 16:25:00,78.5,62.5,29.79,NW,304,2.0,2.0,58,0.00,,,0.02,Wunderground v.1.15,2013-06-02 20:25:00,
2013-06-02 16:30:00,77.9,61.9,29.80,NNW,335,2.0,2.0,58,0.00,,,0.02,Wunderground v.1.15,2013-06-02 20:30:00,
2013-06-02 16:35:00,78.0,61.5,29.80,West,281,2.0,2.0,57,0.00,,,0.02,Wunderground v.1.15,2013-06-02 20:35:00,
2013-06-02 16:45:00,79.0,62.0,29.80,WNW,288,1.0,3.0,56,0.00,,,0.02,Wunderground v.1.15,2013-06-02 20:45:00,
2013-06-02 16:50:00,79.4,61.3,29.80,WNW,292,2.0,3.0,54,0.00,,,0.02,Wunderground v.1.15,2013-06-02 20:50:00,
2013-06-02 16:55:00,80.1,60.9,29.80,WNW,302,2.0,2.0,52,0.00,,,0.02,Wunderground v.1.15,2013-06-02 20:55:00,
2013-06-02 17:05:00,79.4,61.3,29.80,WNW,298,3.0,5.0,54,0.00,,,0.02,Wunderground v.1.15,2013-06-02 21:05:00,
2013-06-02 17:10:00,79.4,61.3,29.80,WNW,287,3.0,8.0,54,0.00,,,0.02,Wunderground v.1.15,2013-06-02 21:10:00,
2013-06-02 17:20:00,79.1,60.0,29.81,WNW,285,3.0,4.0,52,0.00,,,0.02,Wunderground v.1.15,2013-06-02 21:20:00,
2013-06-02 17:25:00,78.8,60.2,29.81,NW,314,3.0,3.0,53,0.00,,,0.02,Wunderground v.1.15,2013-06-02 21:25:00,
2013-06-02 17:30:00,78.5,60.5,29.81,WNW,287,3.0,3.0,54,0.00,,,0.02,Wunderground v.1.15,2013-06-02 21:30:00,
2013-06-02 17:35:00,78.4,60.9,29.80,WNW,296,2.0,6.0,55,0.00,,,0.02,Wunderground v.1.15,2013-06-02 21:35:00,
2013-06-02 17:45:00,77.9,60.4,29.81,SW,226,2.0,5.0,55,0.00,,,0.02,Wunderground v.1.15,2013-06-02 21:45:00,
2013-06-02 17:50:00,77.5,59.5,29.81,ESE,115,2.0,5.0,54,0.00,,,0.02,Wunderground v.1.15,2013-06-02 21:50:00,
2013-06-02 17:55:00,77.7,58.7,29.81,NW,309,4.0,4.0,52,0.00,,,0.02,Wunderground v.1.15,2013-06-02 21:55:00,
2013-06-02 18:05:00,77.9,58.9,29.81,West,262,3.0,3.0,52,0.00,,,0.02,Wunderground v.1.15,2013-06-02 22:05:00,
2013-06-02 18:15:00,77.5,57.9,29.82,WSW,245,4.0,4.0,51,0.00,,,0.02,Wunderground v.1.15,2013-06-02 22:15:00,
2013-06-02 18:20:00,77.7,57.6,29.82,West,281,4.0,7.0,50,0.00,,,0.02,Wunderground v.1.15,2013-06-02 22:20:00,
2013-06-02 18:25:00,77.5,56.8,29.82,WNW,297,4.0,4.0,49,0.00,,,0.02,Wunderground v.1.15,2013-06-02 22:25:00,
2013-06-02 18:30:00,77.3,56.6,29.82,NW,308,4.0,4.0,49,0.00,,,0.02,Wunderground v.1.15,2013-06-02 22:30:00,
2013-06-02 18:40:00,77.1,57.0,29.83,NW,307,4.0,4.0,50,0.00,,,0.02,Wunderground v.1.15,2013-06-02 22:40:00,
2013-06-02 18:45:00,77.0,55.8,29.83,WNW,292,4.0,5.0,48,0.00,,,0.02,Wunderground v.1.15,2013-06-02 22:45:00,
2013-06-02 18:50:00,76.9,55.7,29.83,NNE,31,4.0,5.0,48,0.00,,,0.02,Wunderground v.1.15,2013-06-02 22:50:00,
2013-06-02 19:04:00,76.4,55.3,29.83,SSW,210,3.0,3.0,48,0.00,,,0.02,Wunderground v.1.15,2013-06-02 23:04:00,
2013-06-02 19:10:00,76.1,56.1,29.83,West,268,3.0,3.0,50,0.00,,,0.02,Wunderground v.1.15,2013-06-02 23:10:00,
2013-06-02 19:15:00,75.9,56.5,29.84,NNW,328,2.0,4.0,51,0.00,,,0.02,Wunderground v.1.15,2013-06-02 23:15:00,